Time;durP1;ratioP1;P1;durP2;ratioP2;P2;SDS_P1;SDS_P2;PMS_P1;PMS_P2;Temp;Humidity;BMP_temperature;BMP_pressure;BME280_temperature;BME280_humidity;BME280_pressure;Samples;Min_cycle;Max_cycle;Signal;HPM_P1;HPM_P2
2022/12/18 00:01:59;;;;;;;0.20;0.05;;;9.80;99.90;;;;;;21056461;28;20902;-78
2022/12/18 00:12:04;;;;;;;0.20;0.00;;;9.90;99.90;;;;;;21095468;28;20782;-77
2022/12/18 00:22:19;;;;;;;0.20;0.10;;;9.90;99.90;;;;;;21138467;28;20391;-78
2022/12/18 00:32:23;;;;;;;0.20;0.10;;;9.90;99.90;;;;;;21157366;28;20493;-79
2022/12/18 00:52:51;;;;;;;0.20;0.10;;;9.60;99.90;;;;;;21187876;27;20499;-76
2022/12/18 01:02:56;;;;;;;0.20;0.10;;;9.20;99.90;;;;;;21153000;28;20422;-78
2022/12/18 01:13:00;;;;;;;0.20;0.10;;;9.10;99.90;;;;;;21135041;28;20462;-79
2022/12/18 01:23:05;;;;;;;0.20;0.10;;;8.90;99.90;;;;;;21134903;28;20390;-77
2022/12/18 01:33:09;;;;;;;0.20;0.00;;;8.80;99.90;;;;;;21151188;28;20410;-73
2022/12/18 01:43:14;;;;;;;0.20;0.10;;;9.70;99.90;;;;;;21150388;28;20422;-77
2022/12/18 01:53:23;;;;;;;0.20;0.00;;;9.60;99.90;;;;;;21132556;28;20414;-75
2022/12/18 02:03:28;;;;;;;0.20;0.10;;;9.20;99.90;;;;;;21148912;28;20421;-75
2022/12/18 02:13:42;;;;;;;0.20;0.00;;;8.90;99.90;;;;;;21130435;28;20413;-76
2022/12/18 02:24:00;;;;;;;0.20;0.10;;;9.00;99.90;;;;;;21191727;27;20389;-76
2022/12/18 02:34:08;;;;;;;0.20;0.10;;;8.80;99.90;;;;;;21214266;27;20397;-75
2022/12/18 02:44:14;;;;;;;0.20;0.10;;;8.70;99.90;;;;;;21212715;27;20890;-71
2022/12/18 02:54:30;;;;;;;0.20;0.00;;;8.70;99.90;;;;;;21231235;27;20419;-75
2022/12/18 03:04:42;;;;;;;0.20;0.10;;;8.70;99.90;;;;;;21212514;28;20397;-75
2022/12/18 03:14:52;;;;;;;0.20;0.07;;;9.00;99.90;;;;;;21230910;28;20396;-75
2022/12/18 03:24:58;;;;;;;0.20;0.10;;;8.90;99.90;;;;;;21230722;28;20909;-76
2022/12/18 03:35:06;;;;;;;0.20;0.10;;;8.90;99.90;;;;;;21211809;28;20415;-77
2022/12/18 03:45:14;;;;;;;0.20;0.00;;;8.90;99.90;;;;;;21230011;28;20719;-77
2022/12/18 03:55:21;;;;;;;0.20;0.00;;;8.90;99.90;;;;;;21211186;27;20407;-76
2022/12/18 04:05:27;;;;;;;0.20;0.10;;;8.90;99.90;;;;;;21244606;27;20475;-77
2022/12/18 04:15:35;;;;;;;0.20;0.00;;;9.10;99.90;;;;;;21243944;27;20423;-75
2022/12/18 04:25:39;;;;;;;0.20;0.00;;;9.10;99.90;;;;;;21177336;27;20381;-75
2022/12/18 04:35:45;;;;;;;0.20;0.10;;;9.00;99.90;;;;;;21155555;27;20502;-76
2022/12/18 04:45:48;;;;;;;0.20;0.10;;;9.20;99.90;;;;;;21148018;27;20426;-76
2022/12/18 04:56:04;;;;;;;0.20;0.00;;;9.20;99.90;;;;;;21215143;27;20416;-76
2022/12/18 05:06:08;;;;;;;0.20;0.10;;;9.20;99.90;;;;;;21214790;27;20484;-75
2022/12/18 05:16:14;;;;;;;0.20;0.00;;;9.20;99.90;;;;;;21219727;27;20401;-75
2022/12/18 05:26:19;;;;;;;0.20;0.07;;;9.20;99.90;;;;;;21237745;27;20476;-75
2022/12/18 05:36:25;;;;;;;0.20;0.10;;;9.20;99.90;;;;;;21237186;27;20500;-78
2022/12/18 05:46:29;;;;;;;0.20;0.10;;;9.10;99.90;;;;;;21218776;27;20433;-78
2022/12/18 05:56:35;;;;;;;0.20;0.10;;;9.10;99.90;;;;;;21235520;27;20759;-77
2022/12/18 06:06:39;;;;;;;0.20;0.10;;;9.20;99.90;;;;;;21235764;27;20716;-81
2022/12/18 06:16:45;;;;;;;0.20;0.00;;;9.10;99.90;;;;;;21234088;27;20958;-77
2022/12/18 06:26:48;;;;;;;0.20;0.10;;;9.10;99.90;;;;;;21130701;28;20422;-73
2022/12/18 06:36:54;;;;;;;0.20;0.10;;;9.10;99.90;;;;;;21147681;28;20414;-74
2022/12/18 06:46:58;;;;;;;0.20;0.00;;;9.00;99.90;;;;;;21147139;28;20390;-73
2022/12/18 06:57:03;;;;;;;0.20;0.10;;;9.00;99.90;;;;;;21146011;28;20500;-77
2022/12/18 07:07:07;;;;;;;0.20;0.10;;;8.90;99.90;;;;;;21128215;28;20417;-75
2022/12/18 07:17:12;;;;;;;0.20;0.00;;;8.90;99.90;;;;;;21145399;28;20421;-78
2022/12/18 07:27:16;;;;;;;0.20;0.10;;;9.00;99.90;;;;;;21126429;28;20399;-76
2022/12/18 07:37:22;;;;;;;0.20;0.10;;;9.00;99.90;;;;;;21138210;28;20544;-77
2022/12/18 07:47:26;;;;;;;0.20;0.00;;;9.10;99.90;;;;;;21142285;28;20390;-77
2022/12/18 07:57:32;;;;;;;0.20;0.10;;;9.30;99.90;;;;;;21159541;28;20418;-76
2022/12/18 08:07:53;;;;;;;0.20;0.00;;;9.50;99.90;;;;;;21138521;28;20896;-75
2022/12/18 08:17:59;;;;;;;0.20;0.10;;;9.70;99.90;;;;;;21192477;27;20459;-75
2022/12/18 08:28:03;;;;;;;0.20;0.10;;;10.00;99.90;;;;;;21241946;27;20412;-75
2022/12/18 08:38:08;;;;;;;0.20;0.00;;;10.30;99.90;;;;;;21240696;27;20490;-75
2022/12/18 08:48:12;;;;;;;0.20;0.00;;;10.40;99.90;;;;;;21221933;27;20404;-76
2022/12/18 08:58:25;;;;;;;0.20;0.08;;;10.60;99.90;;;;;;21168909;27;20413;-77
2022/12/18 09:08:29;;;;;;;0.20;0.10;;;11.20;99.90;;;;;;21203956;27;20389;-77
2022/12/18 09:18:35;;;;;;;0.20;0.00;;;11.90;99.90;;;;;;21219087;27;20527;-80
2022/12/18 09:28:39;;;;;;;0.20;0.00;;;12.10;99.90;;;;;;21237212;27;20405;-75
2022/12/18 09:38:45;;;;;;;0.20;0.05;;;12.70;99.90;;;;;;21218643;27;20721;-78
2022/12/18 09:48:51;;;;;;;0.20;0.10;;;13.30;99.90;;;;;;21215773;27;20412;-77
2022/12/18 09:58:59;;;;;;;0.20;0.10;;;13.70;99.90;;;;;;21214091;27;20424;-73
2022/12/18 10:09:10;;;;;;;0.20;0.10;;;14.00;99.90;;;;;;21234200;27;20408;-66
2022/12/18 10:19:38;;;;;;;0.20;0.10;;;14.50;99.90;;;;;;21215698;27;20397;-76
2022/12/18 10:29:44;;;;;;;0.20;0.00;;;15.50;99.90;;;;;;21196061;27;20492;-74
2022/12/18 10:40:09;;;;;;;0.20;0.10;;;16.10;99.90;;;;;;21230993;27;20415;-74
2022/12/18 10:50:23;;;;;;;0.20;0.10;;;16.20;99.90;;;;;;21210619;27;20448;-75
2022/12/18 11:00:36;;;;;;;0.20;0.00;;;16.40;99.90;;;;;;21107109;28;20405;-75
2022/12/18 11:10:40;;;;;;;0.20;0.10;;;16.50;99.90;;;;;;21152009;28;20485;-76
2022/12/18 11:20:52;;;;;;;0.20;0.00;;;16.90;99.90;;;;;;21161401;28;20497;-74
2022/12/18 11:31:17;;;;;;;0.20;0.00;;;17.60;99.90;;;;;;21143187;28;20434;-74
2022/12/18 11:42:08;;;;;;;0.20;0.00;;;17.60;99.90;;;;;;21139807;28;20447;-77
2022/12/18 11:51:59;;;;;;;0.20;0.10;;;18.30;99.90;;;;;;21121345;28;20406;-73
2022/12/18 12:02:19;;;;;;;0.20;0.10;;;18.10;99.90;;;;;;21121869;28;20398;-75
2022/12/18 12:12:45;;;;;;;0.20;0.00;;;18.20;99.90;;;;;;21137616;28;20407;-75
2022/12/18 12:22:59;;;;;;;0.20;0.10;;;18.60;99.90;;;;;;21155863;28;20436;-71
2022/12/18 12:33:18;;;;;;;0.20;0.00;;;19.00;99.90;;;;;;21154563;28;20761;-74
2022/12/18 12:43:32;;;;;;;0.20;0.00;;;19.10;99.90;;;;;;21228037;27;20494;-73
2022/12/18 12:53:39;;;;;;;0.20;0.10;;;19.60;99.90;;;;;;21251651;27;20406;-74
2022/12/18 13:03:55;;;;;;;0.20;0.10;;;19.10;99.90;;;;;;21321946;27;20482;-73
2022/12/18 13:13:58;;;;;;;0.20;0.10;;;17.70;99.90;;;;;;21302393;27;20522;-77
2022/12/18 13:24:23;;;;;;;0.20;0.10;;;17.50;99.90;;;;;;21190171;27;20410;-78
2022/12/18 13:34:30;;;;;;;0.20;0.10;;;18.10;99.90;;;;;;21150514;28;20498;-78
2022/12/18 13:44:39;;;;;;;0.20;0.10;;;18.00;99.90;;;;;;21151023;28;20387;-81
2022/12/18 13:54:48;;;;;;;0.20;0.00;;;18.20;99.90;;;;;;21133336;28;20832;-79
2022/12/18 14:04:55;;;;;;;0.20;0.10;;;18.60;99.90;;;;;;21150540;28;20398;-74
2022/12/18 14:15:00;;;;;;;0.20;0.10;;;19.30;99.90;;;;;;21146379;28;20506;-73
2022/12/18 14:25:17;;;;;;;0.20;0.07;;;20.10;99.90;;;;;;21148563;28;20819;-76
2022/12/18 14:35:21;;;;;;;0.20;0.07;;;20.50;99.90;;;;;;21145731;28;20463;-76
2022/12/18 14:45:40;;;;;;;0.20;0.10;;;19.00;99.90;;;;;;21145517;28;20750;-75
2022/12/18 14:55:47;;;;;;;0.20;0.10;;;17.50;99.90;;;;;;21146365;28;20415;-75
2022/12/18 15:05:53;;;;;;;0.20;0.10;;;16.80;99.90;;;;;;21168760;28;20435;-75
2022/12/18 15:15:59;;;;;;;0.20;0.00;;;17.20;99.90;;;;;;21230103;28;20435;-75
2022/12/18 15:26:06;;;;;;;0.20;0.00;;;17.10;99.90;;;;;;21230544;28;20405;-75
2022/12/18 15:36:14;;;;;;;0.20;0.00;;;17.80;99.90;;;;;;21212240;28;20417;-76
2022/12/18 15:46:21;;;;;;;0.20;0.00;;;17.30;99.90;;;;;;21212549;28;20400;-75
2022/12/18 16:06:48;;;;;;;0.20;0.00;;;15.40;99.90;;;;;;21204029;27;20484;-70
2022/12/18 16:17:14;;;;;;;0.20;0.00;;;14.80;99.90;;;;;;21222777;27;20470;-74
2022/12/18 16:27:21;;;;;;;0.20;0.10;;;14.50;99.90;;;;;;21241337;27;20903;-75
2022/12/18 16:37:25;;;;;;;0.20;0.10;;;14.40;99.90;;;;;;21225163;27;20405;-73
2022/12/18 16:47:31;;;;;;;0.20;0.00;;;14.20;99.90;;;;;;21213706;27;20393;-74
2022/12/18 16:57:35;;;;;;;0.20;0.00;;;14.00;99.90;;;;;;21236324;27;20942;-70
2022/12/18 17:07:40;;;;;;;0.20;0.00;;;14.00;99.90;;;;;;21236810;27;20917;-75
2022/12/18 17:17:44;;;;;;;0.20;0.03;;;13.20;99.90;;;;;;21244050;27;20444;-73
2022/12/18 17:27:51;;;;;;;0.20;0.03;;;12.50;99.90;;;;;;21227099;27;20492;-74
2022/12/18 17:37:55;;;;;;;0.20;0.00;;;12.10;99.90;;;;;;21248146;27;20397;-73
2022/12/18 17:48:00;;;;;;;0.20;0.00;;;11.60;99.90;;;;;;21207668;27;20401;-74
2022/12/18 17:58:04;;;;;;;0.20;0.00;;;11.40;99.90;;;;;;21232386;27;20404;-72
2022/12/18 18:08:09;;;;;;;0.20;0.00;;;11.40;99.90;;;;;;21211142;27;20455;-72
2022/12/18 18:18:13;;;;;;;0.20;0.00;;;11.00;99.90;;;;;;21226534;27;20404;-75
2022/12/18 18:28:20;;;;;;;0.20;0.10;;;10.90;99.90;;;;;;21227748;27;20902;-74
2022/12/18 18:38:24;;;;;;;0.20;0.10;;;10.80;99.90;;;;;;21188043;27;20582;-73
2022/12/18 18:48:32;;;;;;;0.20;0.00;;;10.70;99.90;;;;;;21226244;27;20405;-74
2022/12/18 18:58:38;;;;;;;0.20;0.10;;;10.60;99.90;;;;;;21225872;27;20419;-75
2022/12/18 19:08:45;;;;;;;0.20;0.00;;;10.50;99.90;;;;;;21200668;27;20390;-75
2022/12/18 19:18:49;;;;;;;0.20;0.07;;;10.80;99.90;;;;;;21204730;28;20439;-73
2022/12/18 19:28:54;;;;;;;0.20;0.10;;;10.60;99.90;;;;;;21175956;27;20492;-76
2022/12/18 19:39:01;;;;;;;0.20;0.00;;;10.50;99.90;;;;;;21216116;27;20488;-74
2022/12/18 19:49:06;;;;;;;0.20;0.00;;;10.50;99.90;;;;;;21234737;27;21470;-76
2022/12/18 19:59:11;;;;;;;0.20;0.00;;;10.60;99.90;;;;;;21233362;27;20859;-76
2022/12/18 20:09:17;;;;;;;0.20;0.00;;;10.20;99.90;;;;;;21228846;27;20397;-74
2022/12/18 20:19:21;;;;;;;0.20;0.00;;;10.10;99.90;;;;;;21193980;27;20440;-76
2022/12/18 20:29:27;;;;;;;0.20;0.00;;;10.40;99.90;;;;;;21230379;27;20834;-75
2022/12/18 20:39:31;;;;;;;0.20;0.00;;;10.40;99.90;;;;;;21248205;27;20412;-76
2022/12/18 20:49:37;;;;;;;0.20;0.10;;;10.50;99.90;;;;;;21244153;27;20451;-73
2022/12/18 20:59:48;;;;;;;0.40;0.40;;;11.00;99.90;;;;;;21210939;27;20397;-80
2022/12/18 21:09:53;;;;;;;0.20;0.00;;;10.60;99.90;;;;;;21229201;27;20411;-78
2022/12/18 21:19:57;;;;;;;0.20;0.07;;;10.40;99.90;;;;;;21214781;27;20401;-80
2022/12/18 21:30:03;;;;;;;0.20;0.00;;;10.50;99.90;;;;;;21214102;27;20476;-78
2022/12/18 21:40:08;;;;;;;0.20;0.00;;;10.30;99.90;;;;;;21216892;27;20433;-79
2022/12/18 21:50:13;;;;;;;0.20;0.10;;;10.20;99.90;;;;;;21167929;27;20757;-78
2022/12/18 22:00:18;;;;;;;0.20;0.10;;;10.10;99.90;;;;;;21132646;28;20517;-77
2022/12/18 22:10:23;;;;;;;0.20;0.00;;;10.00;99.90;;;;;;21188795;27;20748;-77
2022/12/18 22:20:27;;;;;;;0.20;0.10;;;9.70;99.90;;;;;;21212006;27;20416;-77
2022/12/18 22:30:34;;;;;;;0.20;0.00;;;9.60;99.90;;;;;;21047512;28;20419;-77
2022/12/18 22:40:38;;;;;;;0.20;0.10;;;9.40;99.90;;;;;;21064310;28;20874;-77
2022/12/18 22:50:43;;;;;;;0.20;0.00;;;9.40;99.90;;;;;;21147271;28;20395;-78
2022/12/18 23:00:47;;;;;;;0.20;0.00;;;9.30;99.90;;;;;;21146753;28;20398;-77
2022/12/18 23:10:54;;;;;;;0.20;0.10;;;9.30;99.90;;;;;;21158395;28;20381;-78
2022/12/18 23:20:58;;;;;;;0.20;0.00;;;9.20;99.90;;;;;;21162060;28;20413;-78
2022/12/18 23:31:08;;;;;;;0.20;0.00;;;9.20;99.90;;;;;;21060879;28;20400;-76
2022/12/18 23:41:15;;;;;;;0.20;0.00;;;9.20;99.90;;;;;;20855209;28;89822;-78
2022/12/18 23:51:24;;;;;;;0.20;0.03;;;9.10;99.90;;;;;;20953804;28;20748;-76
